createdAt,value
2022-12-09T00:04:54.686Z,24.02
2022-12-09T00:09:58.511Z,22.98
2022-12-09T00:15:01.994Z,24.90
2022-12-09T00:20:08.765Z,23.05
2022-12-09T00:25:12.427Z,23.20
2022-12-09T00:30:16.134Z,22.92
2022-12-09T00:35:21.092Z,22.50
2022-12-09T00:40:24.988Z,23.33
2022-12-09T00:45:28.511Z,24.05
2022-12-09T00:50:34.397Z,24.70
2022-12-09T00:55:38.078Z,23.02
2022-12-09T01:00:41.945Z,21.85
2022-12-09T01:05:47.516Z,25.17
2022-12-09T01:10:50.932Z,25.83
2022-12-09T01:15:54.606Z,24.50
2022-12-09T01:21:00.483Z,22.85
2022-12-09T01:26:05.131Z,23.55
2022-12-09T01:31:10.166Z,25.05
2022-12-09T01:36:18.059Z,27.67
2022-12-09T01:41:23.301Z,27.20
2022-12-09T01:46:26.845Z,28.00
2022-12-09T01:51:32.866Z,29.15
2022-12-09T01:56:38.640Z,28.15
2022-12-09T02:01:47.157Z,26.63
2022-12-09T02:06:52.503Z,30.35
2022-12-09T02:12:10.832Z,26.45
2022-12-09T02:17:27.572Z,30.58
2022-12-09T02:22:41.562Z,25.50
2022-12-09T02:27:52.011Z,26.58
2022-12-09T02:33:15.565Z,23.40
2022-12-09T02:38:24.638Z,25.15
2022-12-09T02:43:34.371Z,22.35
2022-12-09T02:48:42.454Z,23.85
2022-12-09T02:53:54.089Z,22.30
2022-12-09T02:58:58.007Z,22.65
2022-12-09T03:04:04.869Z,22.77
2022-12-09T03:09:12.969Z,21.30
2022-12-09T03:14:20.800Z,23.95
2022-12-09T03:19:29.928Z,23.17
2022-12-09T03:24:39.577Z,22.60
2022-12-09T03:29:47.589Z,23.42
2022-12-09T03:34:55.248Z,23.73
2022-12-09T03:40:01.698Z,24.08
2022-12-09T03:45:09.367Z,22.08
2022-12-09T03:50:14.444Z,21.77
2022-12-09T03:55:26.005Z,21.45
2022-12-09T04:00:30.544Z,17.77
2022-12-09T04:05:34.435Z,20.92
2022-12-09T04:10:39.473Z,20.50
2022-12-09T04:15:43.159Z,21.05
2022-12-09T04:20:46.608Z,20.48
2022-12-09T04:25:51.791Z,19.55
2022-12-09T04:30:55.399Z,16.67
2022-12-09T04:36:05.693Z,18.55
2022-12-09T04:41:11.715Z,18.80
2022-12-09T04:46:17.068Z,16.92
2022-12-09T04:51:20.834Z,15.68
2022-12-09T04:56:25.805Z,16.58
2022-12-09T05:01:31.591Z,16.65
2022-12-09T05:06:35.419Z,15.88
2022-12-09T05:11:40.400Z,17.27
2022-12-09T05:16:44.094Z,20.33
2022-12-09T05:21:48.111Z,17.63
2022-12-09T05:26:53.708Z,17.92
2022-12-09T05:31:57.399Z,20.35
2022-12-09T05:37:01.224Z,18.30
2022-12-09T05:42:06.597Z,17.95
2022-12-09T05:47:10.617Z,18.98
2022-12-09T05:52:14.553Z,17.70
2022-12-09T05:57:19.866Z,15.93
2022-12-09T06:02:23.641Z,15.68
2022-12-09T06:07:27.792Z,17.02
2022-12-09T06:12:33.362Z,16.80
2022-12-09T06:17:37.293Z,18.42
2022-12-09T06:22:41.300Z,17.38
2022-12-09T06:27:46.237Z,15.70
2022-12-09T06:32:49.846Z,17.15
2022-12-09T06:37:54.178Z,16.50
2022-12-09T06:42:59.193Z,15.75
2022-12-09T06:48:02.726Z,17.70
2022-12-09T06:53:07.281Z,17.52
2022-12-09T06:58:12.818Z,20.23
2022-12-09T07:03:16.639Z,20.48
2022-12-09T07:08:20.785Z,19.45
2022-12-09T07:13:26.450Z,18.80
2022-12-09T07:18:30.135Z,18.98
2022-12-09T07:23:34.161Z,17.55
2022-12-09T07:28:42.697Z,21.52
2022-12-09T07:33:47.026Z,20.40
2022-12-09T07:38:56.530Z,21.10
2022-12-09T07:44:02.068Z,18.77
2022-12-09T07:49:07.416Z,21.17
2022-12-09T07:54:13.979Z,23.20
2022-12-09T07:59:19.744Z,23.42
2022-12-09T08:04:23.855Z,23.48
2022-12-09T08:09:28.290Z,24.70
2022-12-09T08:14:34.198Z,20.17
2022-12-09T08:19:38.017Z,23.10
2022-12-09T08:24:41.999Z,24.50
2022-12-09T08:29:48.134Z,22.42
2022-12-09T08:34:52.005Z,20.42
2022-12-09T08:39:56.049Z,20.02
2022-12-09T08:45:02.943Z,22.92
2022-12-09T08:50:08.810Z,23.08
2022-12-09T08:55:13.461Z,23.30
2022-12-09T09:00:20.370Z,24.60
2022-12-09T09:05:24.820Z,23.83
2022-12-09T09:10:30.332Z,23.83
2022-12-09T09:15:35.892Z,23.08
2022-12-09T09:20:39.641Z,22.05
2022-12-09T09:25:47.689Z,21.83
2022-12-09T09:31:01.712Z,19.75
2022-12-09T09:36:10.473Z,33.22
2022-12-09T09:41:39.536Z,18.25
2022-12-09T09:46:47.976Z,19.60
2022-12-09T09:51:52.029Z,21.23
2022-12-09T09:57:02.152Z,19.70
2022-12-09T10:02:18.486Z,19.70
2022-12-09T10:07:27.367Z,19.00
2022-12-09T10:12:41.754Z,19.48
2022-12-09T10:17:52.152Z,18.85
2022-12-09T10:23:01.308Z,15.95
2022-12-09T10:28:10.880Z,18.45
2022-12-09T10:33:19.058Z,18.13
2022-12-09T10:38:23.690Z,17.60
2022-12-09T10:43:37.552Z,19.23
2022-12-09T10:48:53.072Z,20.45
2022-12-09T10:54:00.932Z,20.30
2022-12-09T10:59:29.998Z,19.83
2022-12-09T11:04:37.795Z,18.38
2022-12-09T11:09:44.818Z,17.45
2022-12-09T11:14:55.521Z,18.85
2022-12-09T11:20:19.563Z,18.23
2022-12-09T11:25:27.345Z,18.08
2022-12-09T11:30:34.172Z,21.35
2022-12-09T11:35:53.109Z,17.55
2022-12-09T11:41:05.082Z,15.63
2022-12-09T11:46:23.065Z,15.30
2022-12-09T11:51:33.197Z,15.13
2022-12-09T11:56:40.330Z,14.50
2022-12-09T12:01:53.750Z,16.85
2022-12-09T12:07:04.624Z,16.48
2022-12-09T12:12:18.450Z,15.38
2022-12-09T12:17:28.170Z,16.10
2022-12-09T12:22:54.853Z,17.23
2022-12-09T12:28:17.833Z,15.52
2022-12-09T12:39:27.424Z,10.25
2022-12-09T12:44:59.305Z,15.65
2022-12-09T12:50:29.784Z,16.75
2022-12-09T12:55:48.978Z,15.57
2022-12-09T13:01:01.895Z,15.98
2022-12-09T13:06:10.149Z,16.80
2022-12-09T13:11:21.003Z,15.15
2022-12-09T13:16:29.139Z,14.55
2022-12-09T13:21:33.233Z,14.27
2022-12-09T13:26:50.840Z,13.73
2022-12-09T13:32:03.867Z,12.13
2022-12-09T13:37:55.272Z,12.77
2022-12-09T13:43:08.263Z,12.13
2022-12-09T13:48:41.815Z,12.93
2022-12-09T13:53:53.667Z,12.70
2022-12-09T13:59:40.264Z,15.00
2022-12-09T14:04:51.158Z,14.57
2022-12-09T14:09:57.030Z,14.27
2022-12-09T14:15:03.188Z,14.52
2022-12-09T14:20:19.271Z,17.13
2022-12-09T14:25:56.224Z,21.55
2022-12-09T14:31:08.044Z,16.00
2022-12-09T14:36:27.984Z,17.67
2022-12-09T14:41:35.981Z,17.13
2022-12-09T14:46:43.379Z,15.98
2022-12-09T14:51:51.042Z,15.98
2022-12-09T14:56:58.300Z,15.57
2022-12-09T15:02:17.187Z,15.32
2022-12-09T15:07:22.846Z,16.55
2022-12-09T15:12:31.433Z,16.50
2022-12-09T15:17:43.381Z,15.43
2022-12-09T15:22:53.011Z,17.90
2022-12-09T15:28:00.000Z,18.00
2022-12-09T15:33:15.221Z,18.33
2022-12-09T15:38:19.391Z,16.40
2022-12-09T15:43:23.079Z,15.75
2022-12-09T15:48:33.094Z,18.00
2022-12-09T15:53:42.746Z,17.08
2022-12-09T15:58:49.610Z,18.58
2022-12-09T16:03:57.162Z,18.73
2022-12-09T16:09:01.834Z,19.33
2022-12-09T16:14:06.118Z,17.45
2022-12-09T16:30:21.647Z,17.15
2022-12-09T16:35:27.586Z,14.27
2022-12-09T16:41:02.282Z,33.47
2022-12-09T16:46:40.506Z,18.63
2022-12-09T16:51:44.193Z,17.27
2022-12-09T16:56:51.445Z,17.80
2022-12-09T17:01:55.553Z,18.30
2022-12-09T17:06:59.375Z,17.55
2022-12-09T17:12:04.677Z,18.45
2022-12-09T17:17:08.583Z,20.27
2022-12-09T17:22:12.635Z,16.95
2022-12-09T17:27:18.133Z,18.33
2022-12-09T17:32:21.723Z,17.13
2022-12-09T17:37:25.399Z,16.75
2022-12-09T17:42:30.553Z,19.30
2022-12-09T17:47:34.319Z,20.45
2022-12-09T17:52:38.034Z,17.50
2022-12-09T17:57:42.959Z,18.27
2022-12-09T18:02:46.629Z,21.02
2022-12-09T18:07:50.536Z,18.52
2022-12-09T18:12:55.737Z,20.23
2022-12-09T18:17:59.632Z,20.58
2022-12-09T18:23:03.173Z,19.45
2022-12-09T18:28:09.271Z,21.42
2022-12-09T18:33:13.158Z,22.10
2022-12-09T18:38:17.065Z,20.08
2022-12-09T18:43:22.269Z,20.42
2022-12-09T18:48:25.959Z,19.35
2022-12-09T18:53:29.960Z,19.77
2022-12-09T18:58:57.863Z,24.85
2022-12-09T19:04:01.487Z,24.95
2022-12-09T19:09:07.088Z,23.13
2022-12-09T19:14:12.637Z,22.55
2022-12-09T19:19:18.379Z,24.40
2022-12-09T19:24:24.090Z,24.10
2022-12-09T19:29:29.399Z,23.20
2022-12-09T19:34:33.782Z,23.10
2022-12-09T19:39:37.920Z,23.55
2022-12-09T19:45:00.847Z,24.95
2022-12-09T19:50:07.397Z,22.83
2022-12-09T19:55:11.481Z,25.92
2022-12-09T20:00:18.363Z,23.17
2022-12-09T20:05:22.195Z,23.65
2022-12-09T20:10:25.940Z,22.77
2022-12-09T20:15:30.747Z,24.10
2022-12-09T20:20:34.753Z,30.52
2022-12-09T20:25:38.645Z,35.75
2022-12-09T20:30:43.812Z,28.88
2022-12-09T20:35:47.398Z,24.73
2022-12-09T20:40:51.157Z,22.85
2022-12-09T20:45:56.048Z,22.17
2022-12-09T20:50:59.732Z,24.60
2022-12-09T20:56:05.260Z,24.55
2022-12-09T21:01:12.746Z,22.33
2022-12-09T21:06:18.296Z,23.50
2022-12-09T21:11:23.916Z,24.13
2022-12-09T21:16:31.540Z,25.45
2022-12-09T21:21:37.515Z,24.40
2022-12-09T21:26:41.659Z,23.48
2022-12-09T21:31:48.442Z,23.30
2022-12-09T21:36:52.835Z,23.55
2022-12-09T21:41:56.335Z,24.13
2022-12-09T21:47:01.354Z,22.60
2022-12-09T21:52:06.626Z,30.70
2022-12-09T21:57:10.151Z,24.85
2022-12-09T22:02:15.094Z,23.02
2022-12-09T22:07:18.945Z,25.73
2022-12-09T22:12:22.585Z,26.08
2022-12-09T22:17:27.609Z,27.90
2022-12-09T22:22:31.807Z,26.08
2022-12-09T22:27:36.179Z,29.30
2022-12-09T22:32:43.496Z,24.45
2022-12-09T22:37:49.606Z,24.85
2022-12-09T22:42:53.305Z,26.05
2022-12-09T22:47:58.266Z,24.05
2022-12-09T22:53:01.914Z,26.58
2022-12-09T22:58:05.651Z,26.52
2022-12-09T23:03:10.931Z,25.17
2022-12-09T23:08:14.732Z,24.65
2022-12-09T23:13:18.352Z,25.42
2022-12-09T23:18:23.309Z,25.50
2022-12-09T23:23:26.962Z,24.15
2022-12-09T23:28:30.502Z,26.25
2022-12-09T23:33:36.085Z,24.73
2022-12-09T23:38:39.885Z,25.52
2022-12-09T23:43:43.428Z,26.30
2022-12-09T23:48:50.256Z,23.85
2022-12-09T23:53:56.274Z,25.65
2022-12-09T23:59:01.986Z,26.73
